createdAt,value
2018-12-27T00:01:43.547Z,7.70
2018-12-27T00:04:13.185Z,7.70
2018-12-27T00:06:42.716Z,7.70
2018-12-27T00:09:12.365Z,7.70
2018-12-27T00:11:41.948Z,7.70
2018-12-27T00:14:11.623Z,7.70
2018-12-27T00:16:41.256Z,7.70
2018-12-27T00:19:10.876Z,7.70
2018-12-27T00:21:40.425Z,7.70
2018-12-27T00:24:10.075Z,7.70
2018-12-27T00:26:39.626Z,7.70
2018-12-27T00:29:09.175Z,7.70
2018-12-27T00:31:38.961Z,7.70
2018-12-27T00:34:08.683Z,7.70
2018-12-27T00:36:38.416Z,7.70
2018-12-27T00:39:08.251Z,7.70
2018-12-27T00:41:37.932Z,7.70
2018-12-27T00:44:07.725Z,7.70
2018-12-27T00:46:37.416Z,7.70
2018-12-27T00:49:07.110Z,7.70
2018-12-27T00:51:36.914Z,7.70
2018-12-27T00:54:06.759Z,7.70
2018-12-27T00:56:36.598Z,7.70
2018-12-27T00:59:06.349Z,7.70
2018-12-27T01:01:36.097Z,7.70
2018-12-27T01:04:05.748Z,7.70
2018-12-27T01:06:35.397Z,7.70
2018-12-27T01:09:05.811Z,7.70
2018-12-27T01:11:35.589Z,7.70
2018-12-27T01:14:05.380Z,7.70
2018-12-27T01:16:35.160Z,7.70
2018-12-27T01:19:04.835Z,7.70
2018-12-27T01:21:34.520Z,7.70
2018-12-27T01:24:04.205Z,7.70
2018-12-27T01:26:33.969Z,7.70
2018-12-27T01:29:03.711Z,7.70
2018-12-27T01:31:33.467Z,7.70
2018-12-27T01:34:03.168Z,7.70
2018-12-27T01:36:32.898Z,7.70
2018-12-27T01:39:02.697Z,7.70
2018-12-27T01:41:32.398Z,7.70
2018-12-27T01:44:02.104Z,7.70
2018-12-27T01:46:31.772Z,7.70
2018-12-27T01:49:01.477Z,7.70
2018-12-27T01:51:31.151Z,7.70
2018-12-27T01:54:00.840Z,7.70
2018-12-27T01:56:30.499Z,7.70
2018-12-27T01:59:00.241Z,7.70
2018-12-27T02:01:30.249Z,7.80
2018-12-27T02:03:59.881Z,7.70
2018-12-27T02:06:29.581Z,7.80
2018-12-27T02:08:59.386Z,7.70
2018-12-27T02:11:28.997Z,7.70
2018-12-27T02:13:58.634Z,7.70
2018-12-27T02:16:28.365Z,7.70
2018-12-27T02:18:58.004Z,7.70
2018-12-27T02:21:27.640Z,7.70
2018-12-27T02:23:57.341Z,7.70
2018-12-27T02:26:27.055Z,7.70
2018-12-27T02:28:56.771Z,7.70
2018-12-27T02:31:26.579Z,7.60
2018-12-27T02:33:56.367Z,7.60
2018-12-27T02:36:26.067Z,7.60
2018-12-27T02:38:55.792Z,7.60
2018-12-27T02:41:25.559Z,7.60
2018-12-27T02:43:55.329Z,7.60
2018-12-27T02:46:25.120Z,7.60
2018-12-27T02:48:54.930Z,7.60
2018-12-27T02:51:24.674Z,7.60
2018-12-27T02:53:54.408Z,7.60
2018-12-27T02:56:24.206Z,7.50
2018-12-27T02:58:53.975Z,7.50
2018-12-27T03:01:23.794Z,7.50
2018-12-27T03:03:53.521Z,7.50
2018-12-27T03:06:23.221Z,7.50
2018-12-27T03:08:53.085Z,7.50
2018-12-27T03:11:22.768Z,7.50
2018-12-27T03:13:52.569Z,7.50
2018-12-27T03:16:22.369Z,7.40
2018-12-27T03:18:52.210Z,7.40
2018-12-27T03:21:22.169Z,7.40
2018-12-27T03:23:52.115Z,7.40
2018-12-27T03:26:22.768Z,7.40
2018-12-27T03:28:52.649Z,7.40
2018-12-27T03:31:22.552Z,7.40
2018-12-27T03:33:52.820Z,7.40
2018-12-27T03:36:23.129Z,7.50
2018-12-27T03:38:52.921Z,7.50
2018-12-27T03:41:22.697Z,7.40
2018-12-27T03:43:52.472Z,7.50
2018-12-27T03:46:22.257Z,7.50
2018-12-27T03:48:51.997Z,7.50
2018-12-27T03:51:21.821Z,7.50
2018-12-27T03:53:51.605Z,7.50
2018-12-27T03:56:21.344Z,7.50
2018-12-27T03:58:51.016Z,7.50
2018-12-27T04:01:20.808Z,7.50
2018-12-27T04:03:50.589Z,7.50
2018-12-27T04:06:20.546Z,7.50
2018-12-27T04:08:50.393Z,7.50
2018-12-27T04:11:20.258Z,7.50
2018-12-27T04:13:50.609Z,7.50
2018-12-27T04:16:20.339Z,7.40
2018-12-27T04:18:50.053Z,7.40
2018-12-27T04:21:19.790Z,7.40
2018-12-27T04:23:49.849Z,7.50
2018-12-27T04:26:19.539Z,7.50
2018-12-27T04:28:49.068Z,7.40
2018-12-27T04:31:19.425Z,7.40
2018-12-27T04:33:49.220Z,7.40
2018-12-27T04:36:18.996Z,7.40
2018-12-27T04:38:48.758Z,7.40
2018-12-27T04:41:18.467Z,7.40
2018-12-27T04:43:48.621Z,7.40
2018-12-27T04:46:18.302Z,7.40
2018-12-27T04:48:47.939Z,7.40
2018-12-27T04:51:18.322Z,7.40
2018-12-27T04:53:47.958Z,7.40
2018-12-27T04:56:17.595Z,7.40
2018-12-27T04:58:47.178Z,7.40
2018-12-27T05:01:16.927Z,7.40
2018-12-27T05:03:46.574Z,7.40
2018-12-27T05:06:16.269Z,7.40
2018-12-27T05:08:45.966Z,7.40
2018-12-27T05:11:15.628Z,7.30
2018-12-27T05:13:45.604Z,7.40
2018-12-27T05:16:15.252Z,7.30
2018-12-27T05:18:44.854Z,7.40
2018-12-27T05:21:14.451Z,7.40
2018-12-27T05:23:44.097Z,7.30
2018-12-27T05:26:13.749Z,7.40
2018-12-27T05:28:43.369Z,7.40
2018-12-27T05:31:12.953Z,7.40
2018-12-27T05:33:42.549Z,7.40
2018-12-27T05:36:12.230Z,7.40
2018-12-27T05:38:41.885Z,7.40
2018-12-27T05:41:11.469Z,7.40
2018-12-27T05:43:41.092Z,7.40
2018-12-27T05:46:10.822Z,7.40
2018-12-27T05:48:40.420Z,7.40
2018-12-27T05:51:10.091Z,7.40
2018-12-27T05:53:39.728Z,7.40
2018-12-27T05:56:09.354Z,7.40
2018-12-27T05:58:38.955Z,7.40
2018-12-27T06:01:08.687Z,7.40
2018-12-27T06:03:38.336Z,7.40
2018-12-27T06:06:08.016Z,7.40
2018-12-27T06:08:37.706Z,7.40
2018-12-27T06:11:07.385Z,7.40
2018-12-27T06:13:36.999Z,7.40
2018-12-27T06:16:06.725Z,7.40
2018-12-27T06:18:36.396Z,7.40
2018-12-27T06:21:06.027Z,7.40
2018-12-27T06:23:35.629Z,7.40
2018-12-27T06:26:05.191Z,7.40
2018-12-27T06:28:34.853Z,7.30
2018-12-27T06:31:04.502Z,7.30
2018-12-27T06:33:34.015Z,7.30
2018-12-27T06:36:03.632Z,7.30
2018-12-27T06:38:33.266Z,7.30
2018-12-27T06:41:02.953Z,7.30
2018-12-27T06:43:32.504Z,7.30
2018-12-27T06:46:02.440Z,7.30
2018-12-27T06:48:32.141Z,7.30
2018-12-27T06:51:01.829Z,7.30
2018-12-27T06:53:31.518Z,7.30
2018-12-27T06:56:01.264Z,7.30
2018-12-27T06:58:37.564Z,7.30
2018-12-27T07:01:02.798Z,7.30
2018-12-27T07:03:33.122Z,7.30
2018-12-27T07:06:02.846Z,7.30
2018-12-27T07:08:32.576Z,7.40
2018-12-27T07:11:02.264Z,7.30
2018-12-27T07:13:31.998Z,7.30
2018-12-27T07:16:01.706Z,7.30
2018-12-27T07:18:31.477Z,7.30
2018-12-27T07:21:01.175Z,7.30
2018-12-27T07:23:30.835Z,7.30
2018-12-27T07:26:00.499Z,7.40
2018-12-27T07:28:30.068Z,7.30
2018-12-27T07:30:59.733Z,7.40
2018-12-27T07:33:29.409Z,7.30
2018-12-27T07:35:59.427Z,7.30
2018-12-27T07:38:29.198Z,7.40
2018-12-27T07:40:58.858Z,7.40
2018-12-27T07:43:28.659Z,7.40
2018-12-27T07:45:58.400Z,7.40
2018-12-27T07:48:28.084Z,7.30
2018-12-27T07:50:57.789Z,7.30
2018-12-27T07:53:27.587Z,7.30
2018-12-27T07:55:57.176Z,7.30
2018-12-27T07:58:26.852Z,7.30
2018-12-27T08:00:56.805Z,7.30
2018-12-27T08:03:26.609Z,7.30
2018-12-27T08:05:56.329Z,7.30
2018-12-27T08:08:26.045Z,7.30
2018-12-27T08:10:55.801Z,7.30
2018-12-27T08:13:25.532Z,7.30
2018-12-27T08:15:55.261Z,7.30
2018-12-27T08:18:24.978Z,7.30
2018-12-27T08:20:54.734Z,7.30
2018-12-27T08:23:24.761Z,7.30
2018-12-27T08:25:54.372Z,7.30
2018-12-27T08:28:23.971Z,7.30
2018-12-27T08:30:53.628Z,7.30
2018-12-27T08:33:23.197Z,7.30
2018-12-27T08:35:52.783Z,7.30
2018-12-27T08:38:22.498Z,7.30
2018-12-27T08:40:52.158Z,7.30
2018-12-27T08:43:27.991Z,7.30
2018-12-27T08:45:57.624Z,7.30
2018-12-27T08:48:27.327Z,7.30
2018-12-27T08:50:57.159Z,7.30
2018-12-27T08:53:29.045Z,7.30
2018-12-27T08:56:07.293Z,7.30
2018-12-27T08:58:38.704Z,7.30
2018-12-27T09:01:08.884Z,7.30
2018-12-27T09:03:38.610Z,7.20
2018-12-27T09:06:08.274Z,7.30
2018-12-27T09:08:37.909Z,7.30
2018-12-27T09:11:07.584Z,7.20
2018-12-27T09:13:37.189Z,7.30
2018-12-27T09:16:06.979Z,7.30
2018-12-27T09:18:38.536Z,7.20
2018-12-27T09:21:08.156Z,7.30
2018-12-27T09:23:38.664Z,7.30
2018-12-27T09:26:09.292Z,7.30
2018-12-27T09:28:38.783Z,7.30
2018-12-27T09:31:11.608Z,7.30
2018-12-27T09:33:41.982Z,7.30
2018-12-27T09:36:13.339Z,7.30
2018-12-27T09:38:43.000Z,7.40
2018-12-27T09:41:12.608Z,7.40
2018-12-27T09:43:42.233Z,7.40
2018-12-27T09:46:11.993Z,7.40
2018-12-27T09:48:41.755Z,7.40
2018-12-27T09:51:11.418Z,7.40
2018-12-27T09:53:41.177Z,7.40
2018-12-27T09:56:10.863Z,7.50
2018-12-27T09:58:40.576Z,7.50
2018-12-27T10:01:10.350Z,7.50
2018-12-27T10:03:39.945Z,7.50
2018-12-27T10:06:09.570Z,7.60
2018-12-27T10:08:39.173Z,7.60
2018-12-27T10:11:08.759Z,7.60
2018-12-27T10:13:38.426Z,7.60
2018-12-27T10:16:07.997Z,7.60
2018-12-27T10:18:37.559Z,7.60
2018-12-27T10:21:07.181Z,7.60
2018-12-27T10:23:36.861Z,7.60
2018-12-27T10:26:06.513Z,7.60
2018-12-27T10:28:36.142Z,7.60
2018-12-27T10:31:05.892Z,7.60
2018-12-27T10:33:35.480Z,7.60
2018-12-27T10:36:05.185Z,7.70
2018-12-27T10:38:34.939Z,7.60
2018-12-27T10:41:04.536Z,7.60
2018-12-27T10:43:34.301Z,7.60
2018-12-27T10:46:04.124Z,7.70
2018-12-27T10:48:34.395Z,7.70
2018-12-27T10:51:04.067Z,7.70
2018-12-27T10:53:33.746Z,7.70
2018-12-27T10:56:03.341Z,7.70
2018-12-27T10:58:32.906Z,7.70
2018-12-27T11:01:02.524Z,7.70
2018-12-27T11:03:32.133Z,7.70
2018-12-27T11:06:01.701Z,7.70
2018-12-27T11:08:31.620Z,7.70
2018-12-27T11:11:10.972Z,7.70
2018-12-27T11:13:42.171Z,7.70
2018-12-27T11:16:11.853Z,7.70
2018-12-27T11:18:41.862Z,7.70
2018-12-27T11:21:11.996Z,7.70
2018-12-27T11:23:41.651Z,7.70
2018-12-27T11:26:11.425Z,7.70
2018-12-27T11:28:41.113Z,7.70
2018-12-27T11:31:10.728Z,7.80
2018-12-27T11:33:40.376Z,7.70
2018-12-27T11:36:17.025Z,7.70
2018-12-27T11:38:41.143Z,7.80
2018-12-27T11:41:10.752Z,7.80
2018-12-27T11:43:40.360Z,7.80
2018-12-27T11:46:10.029Z,7.80
2018-12-27T11:48:39.609Z,7.70
2018-12-27T11:51:09.284Z,7.80
2018-12-27T11:53:38.848Z,7.80
2018-12-27T11:56:08.407Z,7.70
2018-12-27T11:58:38.459Z,7.70
2018-12-27T12:01:07.990Z,7.80
2018-12-27T12:03:37.515Z,7.80
2018-12-27T12:06:07.396Z,7.80
2018-12-27T12:08:37.027Z,7.80
2018-12-27T12:11:06.581Z,7.80
2018-12-27T12:13:36.242Z,7.90
2018-12-27T12:16:05.899Z,7.90
2018-12-27T12:18:35.474Z,7.90
2018-12-27T12:21:05.063Z,7.90
2018-12-27T12:23:34.666Z,7.90
2018-12-27T12:26:04.235Z,7.90
2018-12-27T12:28:33.809Z,7.90
2018-12-27T12:31:03.360Z,7.90
2018-12-27T12:33:32.937Z,7.90
2018-12-27T12:36:02.489Z,7.90
2018-12-27T12:38:32.212Z,7.90
2018-12-27T12:41:01.844Z,7.90
2018-12-27T12:43:31.400Z,7.90
2018-12-27T12:46:00.908Z,7.90
2018-12-27T12:48:30.443Z,7.90
2018-12-27T12:51:00.031Z,7.90
2018-12-27T12:53:29.590Z,7.90
2018-12-27T12:55:59.038Z,7.90
2018-12-27T12:58:28.656Z,7.90
2018-12-27T13:00:58.312Z,7.90
2018-12-27T13:03:28.016Z,7.90
2018-12-27T13:05:57.641Z,7.90
2018-12-27T13:08:27.297Z,7.90
2018-12-27T13:10:56.941Z,7.90
2018-12-27T13:13:26.555Z,7.80
2018-12-27T13:15:56.217Z,7.90
2018-12-27T13:18:25.752Z,7.80
2018-12-27T13:20:55.347Z,7.80
2018-12-27T13:23:24.892Z,7.80
2018-12-27T13:25:54.446Z,7.80
2018-12-27T13:28:24.115Z,7.80
2018-12-27T13:30:53.657Z,7.80
2018-12-27T13:33:23.336Z,7.80
2018-12-27T13:35:52.923Z,7.80
2018-12-27T13:38:22.476Z,7.80
2018-12-27T13:40:52.156Z,7.70
2018-12-27T13:43:21.691Z,7.70
2018-12-27T13:45:51.299Z,7.70
2018-12-27T13:48:20.836Z,7.70
2018-12-27T13:50:50.532Z,7.70
2018-12-27T13:53:20.068Z,7.80
2018-12-27T13:55:49.691Z,7.70
2018-12-27T13:58:19.378Z,7.70
2018-12-27T14:00:48.952Z,7.70
2018-12-27T14:03:18.603Z,7.70
2018-12-27T14:05:48.237Z,7.80
2018-12-27T14:08:18.853Z,7.80
2018-12-27T14:10:48.479Z,7.70
2018-12-27T14:13:18.037Z,7.80
2018-12-27T14:15:47.636Z,7.80
2018-12-27T14:18:17.222Z,7.80
2018-12-27T14:20:46.899Z,7.70
2018-12-27T14:23:16.449Z,7.70
2018-12-27T14:25:46.073Z,7.70
2018-12-27T14:28:15.835Z,7.70
2018-12-27T14:30:45.431Z,7.70
2018-12-27T14:33:15.081Z,7.70
2018-12-27T14:35:44.747Z,7.70
2018-12-27T14:38:14.268Z,7.70
2018-12-27T14:40:43.943Z,7.70
2018-12-27T14:43:13.727Z,7.70
2018-12-27T14:45:43.680Z,7.70
2018-12-27T14:48:13.314Z,7.70
2018-12-27T14:50:43.052Z,7.70
2018-12-27T14:53:12.753Z,7.70
2018-12-27T14:55:42.720Z,7.70
2018-12-27T14:58:12.318Z,7.70
2018-12-27T15:00:41.894Z,7.70
2018-12-27T15:03:11.523Z,7.70
2018-12-27T15:05:41.150Z,7.70
2018-12-27T15:08:10.716Z,7.70
2018-12-27T15:10:40.448Z,7.70
2018-12-27T15:13:10.044Z,7.70
2018-12-27T15:15:39.705Z,7.70
2018-12-27T15:18:09.266Z,7.70
2018-12-27T15:20:38.835Z,7.80
2018-12-27T15:23:08.455Z,7.70
2018-12-27T15:25:38.063Z,7.80
2018-12-27T15:28:07.723Z,7.80
2018-12-27T15:30:37.371Z,7.80
2018-12-27T15:33:06.989Z,7.80
2018-12-27T15:35:36.814Z,7.80
2018-12-27T15:38:06.510Z,7.80
2018-12-27T15:40:36.266Z,7.80
2018-12-27T15:43:05.869Z,7.80
2018-12-27T15:45:35.714Z,7.80
2018-12-27T15:48:05.660Z,7.80
2018-12-27T15:50:35.542Z,7.80
2018-12-27T15:53:05.255Z,7.70
2018-12-27T15:55:35.418Z,7.70
2018-12-27T15:58:05.116Z,7.70
2018-12-27T16:00:34.870Z,7.70
2018-12-27T16:03:04.610Z,7.70
2018-12-27T16:05:35.041Z,7.70
2018-12-27T16:08:04.865Z,7.70
2018-12-27T16:10:35.372Z,7.70
2018-12-27T16:13:05.094Z,7.70
2018-12-27T16:15:34.805Z,7.70
2018-12-27T16:18:04.489Z,7.70
2018-12-27T16:20:34.181Z,7.70
2018-12-27T16:23:03.943Z,7.70
2018-12-27T16:25:33.684Z,7.70
2018-12-27T16:28:03.448Z,7.70
2018-12-27T16:30:33.188Z,7.70
2018-12-27T16:33:03.023Z,7.70
2018-12-27T16:35:32.705Z,7.70
2018-12-27T16:38:02.697Z,7.70
2018-12-27T16:40:32.573Z,7.60
2018-12-27T16:43:02.350Z,7.60
2018-12-27T16:45:32.274Z,7.60
2018-12-27T16:48:01.877Z,7.50
2018-12-27T16:50:31.688Z,7.50
2018-12-27T16:53:01.600Z,7.50
2018-12-27T16:55:31.260Z,7.40
2018-12-27T16:58:01.022Z,7.40
2018-12-27T17:00:30.780Z,7.40
2018-12-27T17:03:00.534Z,7.30
2018-12-27T17:05:30.213Z,7.30
2018-12-27T17:07:59.777Z,7.30
2018-12-27T17:10:29.454Z,7.20
2018-12-27T17:12:59.538Z,7.30
2018-12-27T17:15:29.328Z,7.20
2018-12-27T17:17:59.042Z,7.30
2018-12-27T17:20:28.918Z,7.30
2018-12-27T17:22:58.647Z,7.30
2018-12-27T17:25:28.335Z,7.30
2018-12-27T17:27:57.894Z,7.40
2018-12-27T17:30:27.633Z,7.40
2018-12-27T17:32:57.217Z,7.40
2018-12-27T17:35:26.868Z,7.40
2018-12-27T17:37:56.464Z,7.40
2018-12-27T17:40:26.013Z,7.40
2018-12-27T17:42:55.640Z,7.50
2018-12-27T17:45:26.546Z,7.50
2018-12-27T17:47:56.341Z,7.40
2018-12-27T17:50:25.940Z,7.40
2018-12-27T17:52:55.687Z,7.50
2018-12-27T17:55:25.408Z,7.50
2018-12-27T17:57:55.126Z,7.50
2018-12-27T18:00:24.884Z,7.50
2018-12-27T18:02:57.339Z,7.50
2018-12-27T18:05:27.009Z,7.50
2018-12-27T18:07:57.144Z,7.50
2018-12-27T18:10:29.741Z,7.40
2018-12-27T18:13:00.766Z,7.40
2018-12-27T18:15:31.704Z,7.50
2018-12-27T18:18:01.707Z,7.40
2018-12-27T18:20:31.422Z,7.50
2018-12-27T18:23:01.384Z,7.50
2018-12-27T18:25:31.224Z,7.40
2018-12-27T18:28:01.217Z,7.40
2018-12-27T18:30:31.036Z,7.40
2018-12-27T18:33:00.862Z,7.40
2018-12-27T18:35:30.898Z,7.40
2018-12-27T18:38:00.639Z,7.40
2018-12-27T18:40:30.561Z,7.40
2018-12-27T18:43:00.291Z,7.40
2018-12-27T18:45:30.285Z,7.40
2018-12-27T18:48:00.299Z,7.40
2018-12-27T18:50:31.321Z,7.40
2018-12-27T18:53:03.015Z,7.40
2018-12-27T18:55:32.864Z,7.40
2018-12-27T18:58:02.649Z,7.40
2018-12-27T19:00:32.574Z,7.40
2018-12-27T19:03:02.391Z,7.40
2018-12-27T19:05:32.596Z,7.40
2018-12-27T19:08:02.905Z,7.40
2018-12-27T19:10:32.734Z,7.40
2018-12-27T19:13:11.478Z,7.40
2018-12-27T19:16:11.596Z,7.40
2018-12-27T19:18:44.846Z,7.30
2018-12-27T19:21:20.509Z,7.30
2018-12-27T19:23:50.296Z,7.30
2018-12-27T19:26:20.030Z,7.30
2018-12-27T19:28:49.738Z,7.30
2018-12-27T19:31:19.477Z,7.30
2018-12-27T19:33:49.271Z,7.30
2018-12-27T19:36:19.532Z,7.30
2018-12-27T19:38:49.365Z,7.30
2018-12-27T19:41:19.222Z,7.30
2018-12-27T19:43:49.202Z,7.30
2018-12-27T19:46:21.755Z,7.30
2018-12-27T19:48:51.863Z,7.30
2018-12-27T19:51:21.807Z,7.30
2018-12-27T19:53:52.368Z,7.30
2018-12-27T19:56:23.857Z,7.30
2018-12-27T19:58:53.769Z,7.30
2018-12-27T20:01:23.964Z,7.30
2018-12-27T20:03:54.392Z,7.20
2018-12-27T20:06:25.154Z,7.20
2018-12-27T20:08:58.624Z,7.30
2018-12-27T20:11:35.133Z,7.30
2018-12-27T20:14:10.656Z,7.20
2018-12-27T20:16:44.442Z,7.20
2018-12-27T20:19:18.319Z,7.30
2018-12-27T20:21:53.731Z,7.30
2018-12-27T20:24:27.700Z,7.20
2018-12-27T20:27:02.137Z,7.20
2018-12-27T20:29:46.704Z,7.20
2018-12-27T20:32:25.025Z,7.20
2018-12-27T20:34:55.185Z,7.20
2018-12-27T20:37:32.793Z,7.30
2018-12-27T20:40:20.434Z,7.20
2018-12-27T20:42:50.978Z,7.20
2018-12-27T20:45:24.699Z,7.20
2018-12-27T20:47:54.909Z,7.20
2018-12-27T20:50:24.626Z,7.20
2018-12-27T20:53:17.865Z,7.30
2018-12-27T20:55:47.719Z,7.30
2018-12-27T20:58:19.465Z,7.20
2018-12-27T21:00:53.398Z,7.20
2018-12-27T21:03:25.805Z,7.20
2018-12-27T21:06:02.879Z,7.20
2018-12-27T21:08:39.840Z,7.20
2018-12-27T21:11:17.369Z,7.20
2018-12-27T21:14:10.474Z,7.20
2018-12-27T21:16:41.642Z,7.20
2018-12-27T21:19:19.380Z,7.20
2018-12-27T21:21:55.544Z,7.20
2018-12-27T21:24:26.225Z,7.20
2018-12-27T21:26:58.013Z,7.20
2018-12-27T21:29:28.779Z,7.20
2018-12-27T21:32:01.533Z,7.20
2018-12-27T21:34:31.604Z,7.20
2018-12-27T21:37:06.222Z,7.20
2018-12-27T21:39:59.037Z,7.20
2018-12-27T21:42:28.985Z,7.20
2018-12-27T21:45:34.294Z,7.20
2018-12-27T21:48:17.708Z,7.20
2018-12-27T21:50:52.486Z,7.20
2018-12-27T21:53:22.316Z,7.30
2018-12-27T21:55:52.105Z,7.30
2018-12-27T21:58:21.836Z,7.30
2018-12-27T22:00:51.520Z,7.30
2018-12-27T22:03:21.191Z,7.30
2018-12-27T22:05:51.079Z,7.30
2018-12-27T22:08:21.095Z,7.30
2018-12-27T22:10:51.012Z,7.30
2018-12-27T22:13:20.966Z,7.30
2018-12-27T22:15:50.545Z,7.30
2018-12-27T22:18:20.286Z,7.30
2018-12-27T22:20:49.882Z,7.30
2018-12-27T22:23:19.623Z,7.30
2018-12-27T22:25:49.448Z,7.30
2018-12-27T22:28:19.003Z,7.30
2018-12-27T22:30:48.590Z,7.30
2018-12-27T22:33:18.192Z,7.30
2018-12-27T22:35:48.339Z,7.20
2018-12-27T22:38:17.946Z,7.20
2018-12-27T22:40:47.675Z,7.20
2018-12-27T22:43:17.407Z,7.10
2018-12-27T22:45:47.088Z,7.20
2018-12-27T22:48:16.896Z,7.10
2018-12-27T22:50:46.790Z,7.10
2018-12-27T22:53:16.537Z,7.10
2018-12-27T22:55:57.119Z,7.10
2018-12-27T22:58:26.840Z,7.00
2018-12-27T23:00:57.498Z,7.00
2018-12-27T23:03:27.256Z,7.00
2018-12-27T23:05:56.905Z,7.00
2018-12-27T23:08:26.636Z,7.00
2018-12-27T23:10:56.370Z,7.00
2018-12-27T23:13:29.357Z,7.00
2018-12-27T23:15:59.300Z,7.00
2018-12-27T23:18:32.310Z,7.00
2018-12-27T23:21:02.258Z,7.00
2018-12-27T23:23:31.978Z,7.00
2018-12-27T23:26:02.066Z,7.00
2018-12-27T23:28:31.792Z,7.00
2018-12-27T23:31:01.737Z,7.00
2018-12-27T23:33:31.609Z,7.00
2018-12-27T23:36:01.575Z,7.00
2018-12-27T23:38:31.426Z,7.00
2018-12-27T23:41:01.164Z,7.00
2018-12-27T23:43:30.805Z,6.90
2018-12-27T23:46:01.390Z,6.80
2018-12-27T23:48:31.093Z,6.70
2018-12-27T23:51:00.816Z,6.70
2018-12-27T23:53:30.503Z,6.60
2018-12-27T23:56:00.152Z,6.60
2018-12-27T23:58:29.892Z,6.60
